Time;durP1;ratioP1;P1;durP2;ratioP2;P2;SDS_P1;SDS_P2;PMS_P1;PMS_P2;Temp;Humidity;BMP_temperature;BMP_pressure;BME280_temperature;BME280_humidity;BME280_pressure;Samples;Min_cycle;Max_cycle;Signal;HPM_P1;HPM_P2
2022/03/30 00:00:49;;;;;;;3.47;1.67;;;6.80;70.40;;;;;;5114991;28;20130;-68
2022/03/30 00:03:15;;;;;;;3.53;1.63;;;6.90;70.50;;;;;;5114895;28;20044;-69
2022/03/30 00:05:41;;;;;;;3.28;1.60;;;6.80;70.50;;;;;;5115084;28;20048;-68
2022/03/30 00:08:07;;;;;;;2.70;1.50;;;6.70;70.50;;;;;;5114630;28;20051;-69
2022/03/30 00:10:33;;;;;;;3.38;1.55;;;6.70;70.60;;;;;;5114881;28;20039;-69
2022/03/30 00:13:00;;;;;;;3.30;1.70;;;6.60;70.60;;;;;;5114631;28;20039;-69
2022/03/30 00:15:26;;;;;;;3.75;1.95;;;6.70;70.60;;;;;;5114634;28;20051;-69
2022/03/30 00:17:52;;;;;;;3.92;1.45;;;6.60;70.70;;;;;;5114821;28;20039;-69
2022/03/30 00:20:18;;;;;;;2.70;1.42;;;6.60;70.70;;;;;;5114712;28;20106;-69
2022/03/30 00:22:44;;;;;;;2.70;1.42;;;6.60;70.80;;;;;;5114640;28;20032;-68
2022/03/30 00:25:11;;;;;;;3.35;1.60;;;6.60;70.80;;;;;;5114541;28;20066;-69
2022/03/30 00:27:38;;;;;;;3.25;1.40;;;6.50;70.80;;;;;;5114608;28;20046;-68
2022/03/30 00:30:06;;;;;;;2.90;1.38;;;6.50;70.90;;;;;;5115210;28;20055;-68
2022/03/30 00:32:32;;;;;;;3.17;1.50;;;6.50;70.90;;;;;;5114619;28;20044;-68
2022/03/30 00:34:58;;;;;;;2.88;1.70;;;6.50;71.10;;;;;;5114118;28;20128;-68
2022/03/30 00:37:25;;;;;;;1.85;1.13;;;6.40;71.00;;;;;;5096063;28;20404;-68
2022/03/30 00:39:52;;;;;;;2.65;1.33;;;6.40;71.10;;;;;;5114602;28;20032;-68
2022/03/30 00:42:20;;;;;;;3.33;1.27;;;6.40;71.20;;;;;;5114713;28;20072;-68
2022/03/30 00:44:47;;;;;;;2.90;1.27;;;6.40;71.20;;;;;;5114732;28;20043;-69
2022/03/30 00:47:19;;;;;;;3.78;1.33;;;6.50;71.30;;;;;;5096708;28;20044;-69
2022/03/30 00:49:46;;;;;;;3.72;1.50;;;6.40;71.30;;;;;;5114686;28;20047;-68
2022/03/30 00:52:14;;;;;;;3.50;1.33;;;6.30;71.30;;;;;;5114122;28;20122;-68
2022/03/30 00:54:42;;;;;;;3.00;1.25;;;6.30;71.40;;;;;;5095790;28;20044;-68
2022/03/30 00:57:10;;;;;;;3.08;1.45;;;6.30;71.30;;;;;;5095745;28;20397;-68
2022/03/30 00:59:36;;;;;;;4.10;1.52;;;6.30;71.40;;;;;;5113985;28;20377;-68
2022/03/30 01:02:03;;;;;;;4.18;1.63;;;6.20;71.40;;;;;;5114281;28;20048;-68
2022/03/30 01:04:31;;;;;;;4.07;1.60;;;6.30;71.50;;;;;;5114207;28;20047;-69
2022/03/30 01:06:57;;;;;;;3.35;1.45;;;6.20;71.50;;;;;;5114046;28;20046;-69
2022/03/30 01:09:24;;;;;;;2.58;1.25;;;6.20;71.50;;;;;;5096374;28;20039;-68
2022/03/30 01:11:51;;;;;;;2.92;1.30;;;6.10;71.60;;;;;;5113775;28;20031;-68
2022/03/30 01:14:18;;;;;;;2.83;1.40;;;6.20;71.70;;;;;;5113660;28;20058;-68
2022/03/30 01:16:44;;;;;;;3.58;1.40;;;6.10;71.70;;;;;;5113855;28;20050;-69
2022/03/30 01:19:10;;;;;;;1.85;1.23;;;6.10;71.80;;;;;;5113644;28;20043;-68
2022/03/30 01:21:39;;;;;;;1.58;0.90;;;6.10;71.90;;;;;;5095660;28;20035;-69
2022/03/30 01:24:08;;;;;;;2.95;1.30;;;6.00;72.00;;;;;;5113330;28;20048;-69
2022/03/30 01:26:34;;;;;;;2.42;1.13;;;6.00;72.00;;;;;;5095690;28;20096;-69
2022/03/30 01:29:01;;;;;;;1.95;1.20;;;6.00;72.00;;;;;;5113215;28;20104;-69
2022/03/30 01:34:05;;;;;;;1.92;1.10;;;5.90;72.20;;;;;;5113294;28;20071;-69
2022/03/30 01:36:31;;;;;;;1.42;1.02;;;5.80;72.20;;;;;;5113347;28;20040;-69
2022/03/30 01:38:57;;;;;;;1.02;0.80;;;5.90;72.30;;;;;;5113473;28;20035;-69
2022/03/30 01:41:22;;;;;;;1.90;1.02;;;5.80;73.00;;;;;;5113648;28;20043;-69
2022/03/30 01:43:48;;;;;;;3.45;1.60;;;5.80;72.40;;;;;;5113245;28;20039;-69
2022/03/30 01:46:14;;;;;;;3.45;1.30;;;5.80;72.40;;;;;;5113776;28;20078;-69
2022/03/30 01:48:40;;;;;;;2.30;1.20;;;5.80;72.40;;;;;;5113159;28;20133;-68
2022/03/30 01:51:06;;;;;;;2.00;1.17;;;5.80;72.40;;;;;;5113574;28;20446;-69
2022/03/30 01:53:34;;;;;;;3.20;1.25;;;5.80;72.40;;;;;;5113649;28;20036;-69
2022/03/30 01:56:00;;;;;;;1.83;1.00;;;5.80;72.50;;;;;;5094906;28;20074;-68
2022/03/30 01:58:26;;;;;;;3.17;1.45;;;5.70;72.50;;;;;;5113480;28;20060;-68
2022/03/30 02:00:52;;;;;;;2.75;1.25;;;5.70;72.50;;;;;;5112972;28;20040;-68
2022/03/30 02:03:18;;;;;;;2.20;1.02;;;5.70;72.60;;;;;;5112940;28;20031;-69
2022/03/30 02:05:43;;;;;;;1.67;1.08;;;5.70;72.70;;;;;;5112923;28;20071;-68
2022/03/30 02:08:09;;;;;;;1.80;0.90;;;5.60;72.60;;;;;;5113452;28;20071;-68
2022/03/30 02:10:35;;;;;;;1.95;1.20;;;5.60;72.70;;;;;;5113229;28;20044;-69
2022/03/30 02:13:01;;;;;;;1.60;1.08;;;5.60;72.80;;;;;;5094822;28;20040;-68
2022/03/30 02:15:29;;;;;;;2.20;1.10;;;5.60;72.90;;;;;;5112728;28;20100;-68
2022/03/30 02:17:54;;;;;;;4.07;1.38;;;5.50;72.90;;;;;;5112879;28;20078;-68
2022/03/30 02:20:20;;;;;;;2.67;1.20;;;5.50;72.90;;;;;;5112874;28;20067;-68
2022/03/30 02:22:46;;;;;;;1.60;0.93;;;5.50;72.90;;;;;;5113126;28;20036;-68
2022/03/30 02:25:11;;;;;;;2.15;1.00;;;5.50;73.00;;;;;;5112495;28;20488;-68
2022/03/30 02:27:38;;;;;;;1.95;1.02;;;5.50;73.10;;;;;;5112690;28;20050;-68
2022/03/30 02:30:04;;;;;;;1.45;0.82;;;5.50;73.20;;;;;;5112550;28;20072;-68
2022/03/30 02:32:30;;;;;;;2.85;1.25;;;5.50;73.20;;;;;;5112568;28;20067;-68
2022/03/30 02:34:56;;;;;;;2.75;1.15;;;5.50;73.20;;;;;;5112416;28;20087;-68
2022/03/30 02:37:22;;;;;;;2.15;0.98;;;5.40;73.20;;;;;;5094250;28;20031;-68
2022/03/30 02:39:48;;;;;;;1.77;0.95;;;5.40;73.30;;;;;;5112298;28;20039;-68
2022/03/30 02:42:14;;;;;;;2.03;1.13;;;5.40;73.30;;;;;;5112078;28;20036;-68
2022/03/30 02:44:40;;;;;;;1.50;1.00;;;5.30;73.40;;;;;;5112998;28;20082;-68
2022/03/30 02:47:06;;;;;;;2.58;1.13;;;5.20;73.40;;;;;;5094272;28;20039;-68
2022/03/30 02:49:32;;;;;;;3.45;1.23;;;5.20;73.50;;;;;;5094242;28;20047;-68
2022/03/30 02:51:58;;;;;;;2.13;1.02;;;5.20;73.60;;;;;;5112933;28;20051;-68
2022/03/30 02:54:25;;;;;;;2.35;1.20;;;5.10;73.70;;;;;;5092822;28;20040;-68
2022/03/30 02:56:51;;;;;;;2.67;1.17;;;5.10;73.80;;;;;;5112147;28;20039;-68
2022/03/30 02:59:16;;;;;;;3.13;1.30;;;5.10;73.80;;;;;;5112500;28;20391;-68
2022/03/30 03:01:42;;;;;;;2.90;1.23;;;5.00;73.70;;;;;;5112214;28;20040;-68
2022/03/30 03:04:08;;;;;;;1.45;0.95;;;5.00;73.80;;;;;;5094380;28;20484;-68
2022/03/30 03:06:34;;;;;;;2.08;1.02;;;5.00;73.80;;;;;;5112191;28;20044;-68
2022/03/30 03:09:00;;;;;;;2.58;1.30;;;5.00;73.80;;;;;;5112055;28;20044;-68
2022/03/30 03:11:25;;;;;;;1.55;0.98;;;5.00;73.90;;;;;;5112275;28;20055;-68
2022/03/30 03:13:52;;;;;;;2.30;1.30;;;5.00;73.90;;;;;;5112119;28;20067;-68
2022/03/30 03:16:18;;;;;;;2.83;1.40;;;4.90;73.90;;;;;;5112172;28;20111;-68
2022/03/30 03:18:45;;;;;;;1.70;0.98;;;4.90;73.90;;;;;;5112151;28;20418;-68
2022/03/30 03:21:11;;;;;;;2.03;1.00;;;5.10;74.10;;;;;;5111946;28;20076;-68
2022/03/30 03:23:37;;;;;;;3.22;1.10;;;4.90;74.00;;;;;;5091778;28;20134;-68
2022/03/30 03:26:03;;;;;;;1.35;0.90;;;4.90;74.00;;;;;;5111860;28;20122;-68
2022/03/30 03:28:30;;;;;;;3.47;1.30;;;4.80;74.00;;;;;;5111940;28;20180;-68
2022/03/30 03:30:56;;;;;;;2.15;1.15;;;4.80;74.10;;;;;;5111907;28;20063;-69
2022/03/30 03:33:21;;;;;;;1.60;1.15;;;4.80;74.20;;;;;;5111550;28;20134;-68
2022/03/30 03:35:47;;;;;;;2.70;1.10;;;4.80;74.30;;;;;;5111977;28;20158;-68
2022/03/30 03:38:13;;;;;;;2.10;0.98;;;4.80;74.20;;;;;;5112621;28;20362;-68
2022/03/30 03:40:40;;;;;;;4.35;1.15;;;4.70;74.20;;;;;;5111822;28;20028;-68
2022/03/30 03:43:06;;;;;;;1.75;0.88;;;4.80;74.30;;;;;;5111895;28;20123;-68
2022/03/30 03:45:32;;;;;;;1.17;0.80;;;4.70;74.30;;;;;;5112124;28;20064;-69
2022/03/30 03:47:58;;;;;;;1.35;0.82;;;4.60;74.30;;;;;;5111690;28;20035;-69
2022/03/30 03:50:26;;;;;;;1.45;0.68;;;4.70;74.40;;;;;;5112068;28;20044;-69
2022/03/30 03:52:52;;;;;;;1.70;0.90;;;4.60;74.50;;;;;;5112795;28;20493;-69
2022/03/30 03:55:18;;;;;;;1.30;0.75;;;4.60;74.60;;;;;;5114950;28;20048;-68
2022/03/30 03:57:44;;;;;;;0.80;0.75;;;4.50;74.60;;;;;;5115281;28;20057;-68
2022/03/30 04:00:12;;;;;;;1.80;0.90;;;4.50;74.60;;;;;;5115135;28;20130;-68
2022/03/30 04:02:37;;;;;;;2.05;1.10;;;4.50;74.70;;;;;;5115129;28;20028;-68
2022/03/30 04:05:04;;;;;;;1.42;0.82;;;4.50;74.80;;;;;;5096740;28;20051;-69
2022/03/30 04:07:32;;;;;;;1.27;0.60;;;4.50;74.90;;;;;;5115126;28;20031;-69
2022/03/30 04:09:57;;;;;;;1.25;0.80;;;4.40;74.80;;;;;;5115288;28;20044;-68
2022/03/30 04:12:23;;;;;;;1.98;0.98;;;4.40;74.90;;;;;;5096829;28;20049;-68
2022/03/30 04:14:49;;;;;;;1.10;0.60;;;4.40;75.00;;;;;;5114910;28;20034;-68
2022/03/30 04:17:14;;;;;;;1.60;0.90;;;4.40;75.70;;;;;;5115187;28;20039;-69
2022/03/30 04:19:40;;;;;;;1.30;0.77;;;4.20;75.30;;;;;;5114985;28;20105;-69
2022/03/30 04:22:06;;;;;;;1.67;0.90;;;4.40;75.20;;;;;;5114769;28;20039;-68
2022/03/30 04:24:32;;;;;;;1.20;0.80;;;4.20;75.10;;;;;;5095181;28;20389;-69
2022/03/30 04:26:57;;;;;;;1.08;0.65;;;4.20;75.20;;;;;;5115545;28;20044;-68
2022/03/30 04:29:23;;;;;;;1.85;0.80;;;4.10;75.30;;;;;;5114940;28;20127;-68
2022/03/30 04:31:49;;;;;;;1.17;0.80;;;4.10;75.30;;;;;;5114773;28;20043;-68
2022/03/30 04:34:15;;;;;;;1.40;0.70;;;4.20;75.40;;;;;;5096630;28;20524;-68
2022/03/30 04:36:40;;;;;;;1.48;0.90;;;4.10;75.40;;;;;;5114532;28;20075;-68
2022/03/30 04:39:06;;;;;;;1.33;0.82;;;4.10;75.40;;;;;;5095201;28;20126;-68
2022/03/30 04:41:32;;;;;;;1.15;0.80;;;4.10;75.50;;;;;;5096531;28;20046;-68
2022/03/30 04:43:58;;;;;;;1.52;1.10;;;4.00;75.40;;;;;;5095925;28;20047;-68
2022/03/30 04:46:23;;;;;;;2.05;0.60;;;4.00;75.50;;;;;;5114578;28;20442;-68
2022/03/30 04:48:49;;;;;;;2.50;0.88;;;4.00;75.50;;;;;;5114454;28;20027;-68
2022/03/30 04:51:15;;;;;;;1.60;0.95;;;4.00;75.60;;;;;;5114199;28;20039;-68
2022/03/30 04:53:40;;;;;;;1.98;1.10;;;4.00;75.60;;;;;;5095327;28;20044;-68
2022/03/30 04:56:06;;;;;;;1.27;0.90;;;4.00;75.60;;;;;;5114138;28;20039;-68
2022/03/30 04:58:32;;;;;;;0.82;0.68;;;3.90;75.50;;;;;;5114132;28;20051;-69
2022/03/30 05:00:58;;;;;;;1.50;0.75;;;3.90;75.50;;;;;;5114495;28;20119;-68
2022/03/30 05:03:24;;;;;;;0.88;0.63;;;3.90;75.60;;;;;;5077900;28;20541;-69
2022/03/30 05:05:50;;;;;;;2.30;0.90;;;3.90;75.60;;;;;;5113015;28;20043;-69
2022/03/30 05:08:17;;;;;;;2.00;0.90;;;3.80;75.60;;;;;;5095752;28;20062;-69
2022/03/30 05:10:46;;;;;;;1.35;0.80;;;3.90;75.70;;;;;;5114511;28;20043;-69
2022/03/30 05:13:12;;;;;;;1.52;0.80;;;3.80;75.70;;;;;;5096467;28;20542;-69
2022/03/30 05:15:38;;;;;;;1.38;0.85;;;3.80;75.80;;;;;;5114046;28;20038;-69
2022/03/30 05:18:04;;;;;;;2.58;0.90;;;3.70;75.80;;;;;;5114313;28;20374;-69
2022/03/30 05:20:30;;;;;;;1.90;0.80;;;3.70;75.80;;;;;;5078815;28;20046;-69
2022/03/30 05:22:56;;;;;;;1.98;1.05;;;3.60;75.80;;;;;;5114037;28;20123;-69
2022/03/30 05:25:21;;;;;;;1.15;0.77;;;3.60;75.90;;;;;;5113714;28;20135;-69
2022/03/30 05:27:47;;;;;;;1.85;0.88;;;3.60;75.90;;;;;;5114132;28;20047;-69
2022/03/30 05:30:14;;;;;;;1.30;0.77;;;3.60;75.90;;;;;;5114046;28;20040;-69
2022/03/30 05:32:44;;;;;;;1.50;0.75;;;3.60;75.90;;;;;;5113730;28;20039;-69
2022/03/30 05:35:11;;;;;;;1.67;0.90;;;3.60;75.90;;;;;;5114072;28;20036;-69
2022/03/30 05:37:37;;;;;;;1.50;0.82;;;3.60;75.90;;;;;;5110227;28;20035;-69
2022/03/30 05:40:04;;;;;;;1.63;0.80;;;3.60;75.90;;;;;;5113420;28;20037;-69
2022/03/30 05:42:30;;;;;;;1.27;0.70;;;3.60;75.90;;;;;;5113771;28;20393;-69
2022/03/30 05:44:56;;;;;;;1.85;0.75;;;3.60;75.90;;;;;;5113403;28;20040;-69
2022/03/30 05:47:21;;;;;;;1.77;0.60;;;3.60;75.90;;;;;;5113408;28;20477;-69
2022/03/30 05:49:47;;;;;;;1.92;1.00;;;3.60;75.90;;;;;;5113308;28;20092;-69
2022/03/30 05:52:13;;;;;;;1.30;0.75;;;3.60;75.90;;;;;;5113381;28;20117;-69
2022/03/30 05:54:39;;;;;;;1.70;0.88;;;3.80;76.00;;;;;;5113188;28;20051;-69
2022/03/30 05:57:05;;;;;;;1.13;0.52;;;3.70;75.80;;;;;;5095171;28;20039;-69
2022/03/30 05:59:34;;;;;;;2.00;0.80;;;3.70;75.70;;;;;;5095309;28;20149;-69
2022/03/30 06:02:00;;;;;;;2.78;1.08;;;3.80;75.60;;;;;;5113273;28;20036;-69
2022/03/30 06:04:26;;;;;;;0.57;0.45;;;3.80;75.60;;;;;;5113351;28;20396;-69
2022/03/30 06:06:52;;;;;;;0.85;0.60;;;3.80;75.50;;;;;;5095182;28;20123;-69
2022/03/30 06:09:18;;;;;;;1.02;0.70;;;3.90;75.50;;;;;;5113323;28;20042;-69
2022/03/30 06:11:45;;;;;;;0.95;0.52;;;3.90;75.40;;;;;;5113233;28;20048;-70
2022/03/30 06:14:11;;;;;;;1.40;0.77;;;4.00;75.40;;;;;;5112833;28;20101;-70
2022/03/30 06:16:37;;;;;;;2.10;0.95;;;4.00;75.30;;;;;;5112368;28;20093;-70
2022/03/30 06:19:04;;;;;;;2.50;1.17;;;4.10;75.30;;;;;;5113116;28;20054;-70
2022/03/30 06:21:30;;;;;;;1.10;0.60;;;4.10;75.20;;;;;;5112826;28;20035;-70
2022/03/30 06:23:58;;;;;;;1.95;0.80;;;4.20;75.10;;;;;;5112695;28;20051;-70
2022/03/30 06:26:25;;;;;;;1.92;0.93;;;4.30;75.00;;;;;;5094644;28;20043;-70
2022/03/30 06:28:51;;;;;;;2.25;1.02;;;4.30;75.00;;;;;;5112619;28;20905;-70
2022/03/30 06:31:17;;;;;;;2.17;1.05;;;4.30;74.90;;;;;;5113149;28;20400;-70
2022/03/30 06:33:44;;;;;;;2.03;0.77;;;4.50;74.90;;;;;;5112770;28;20093;-70
2022/03/30 06:36:11;;;;;;;1.63;0.85;;;4.50;74.80;;;;;;5094278;28;20055;-71
2022/03/30 06:38:41;;;;;;;1.83;0.95;;;4.60;74.70;;;;;;5094155;28;20119;-71
2022/03/30 06:41:08;;;;;;;1.42;0.90;;;4.70;74.60;;;;;;5077951;28;20722;-71
2022/03/30 06:43:36;;;;;;;1.80;0.73;;;4.80;74.50;;;;;;5094370;28;20035;-71
2022/03/30 06:46:02;;;;;;;0.90;0.52;;;4.90;74.40;;;;;;5112609;28;20066;-71
2022/03/30 06:48:28;;;;;;;2.00;0.90;;;5.00;74.30;;;;;;5077692;28;20050;-71
2022/03/30 06:50:54;;;;;;;0.85;0.63;;;5.00;74.20;;;;;;5093644;28;20511;-71
2022/03/30 06:53:19;;;;;;;1.23;0.60;;;5.10;74.20;;;;;;5112381;28;20067;-71
2022/03/30 06:55:47;;;;;;;2.05;0.90;;;5.20;74.80;;;;;;5094042;28;20504;-71
2022/03/30 06:58:12;;;;;;;1.63;0.90;;;5.30;74.10;;;;;;5077209;28;20035;-71
2022/03/30 07:00:38;;;;;;;1.13;0.73;;;5.50;74.10;;;;;;5060574;28;20362;-71
2022/03/30 07:03:04;;;;;;;2.13;1.10;;;5.50;74.00;;;;;;5112595;28;20031;-72
2022/03/30 07:05:31;;;;;;;0.85;0.50;;;5.60;73.90;;;;;;5076014;28;20039;-72
2022/03/30 07:10:40;;;;;;;1.40;0.82;;;5.90;73.40;;;;;;5096632;28;20077;-71
2022/03/30 07:13:06;;;;;;;3.10;1.00;;;5.90;73.20;;;;;;5112160;28;20035;-72
2022/03/30 07:15:32;;;;;;;2.55;0.80;;;6.10;73.20;;;;;;5112150;28;20071;-71
2022/03/30 07:18:00;;;;;;;1.30;0.70;;;6.20;73.10;;;;;;5112209;28;20040;-72
2022/03/30 07:20:27;;;;;;;2.05;0.90;;;6.20;72.90;;;;;;5077012;28;20032;-71
2022/03/30 07:22:53;;;;;;;1.35;0.85;;;6.30;72.80;;;;;;5112342;28;20408;-72
2022/03/30 07:25:22;;;;;;;3.65;1.45;;;6.50;72.80;;;;;;5112369;28;20036;-71
2022/03/30 07:27:50;;;;;;;1.88;1.00;;;6.50;72.70;;;;;;5112929;28;20032;-71
2022/03/30 07:30:17;;;;;;;2.92;1.13;;;6.60;72.70;;;;;;5080634;28;20050;-70
2022/03/30 07:32:46;;;;;;;2.03;1.00;;;6.70;72.70;;;;;;5080705;28;20055;-71
2022/03/30 07:35:15;;;;;;;2.88;1.08;;;6.80;72.60;;;;;;5115761;28;20040;-70
2022/03/30 07:37:41;;;;;;;2.58;1.23;;;6.90;72.50;;;;;;5115711;28;20127;-71
2022/03/30 07:40:08;;;;;;;1.80;1.08;;;7.00;72.40;;;;;;5115539;28;20119;-70
2022/03/30 07:42:35;;;;;;;1.65;1.00;;;7.00;72.30;;;;;;5097884;28;20044;-70
2022/03/30 07:45:03;;;;;;;1.38;0.73;;;7.20;72.30;;;;;;5115912;28;20039;-71
2022/03/30 07:47:31;;;;;;;1.88;0.90;;;7.20;72.20;;;;;;5115788;28;20058;-70
2022/03/30 07:49:57;;;;;;;2.35;1.08;;;7.30;72.10;;;;;;5097306;28;20575;-72
2022/03/30 07:52:23;;;;;;;2.05;1.33;;;7.40;72.00;;;;;;5115247;28;20051;-70
2022/03/30 07:54:50;;;;;;;3.95;1.33;;;7.50;72.00;;;;;;5115331;28;20035;-70
2022/03/30 07:57:16;;;;;;;1.88;1.00;;;7.60;72.00;;;;;;5115179;28;20051;-70
2022/03/30 07:59:42;;;;;;;2.42;1.15;;;7.70;71.80;;;;;;5115362;28;20032;-69
2022/03/30 08:02:10;;;;;;;3.42;1.33;;;7.80;71.70;;;;;;5095677;28;20044;-70
2022/03/30 08:04:35;;;;;;;2.03;0.98;;;7.90;71.60;;;;;;5080951;28;20043;-70
2022/03/30 08:07:01;;;;;;;2.13;0.93;;;8.00;71.50;;;;;;5115463;28;20048;-69
2022/03/30 08:09:27;;;;;;;2.15;1.30;;;8.10;71.30;;;;;;5097404;28;20392;-71
2022/03/30 08:11:52;;;;;;;1.63;1.17;;;8.30;71.10;;;;;;5097533;28;20039;-71
2022/03/30 08:14:19;;;;;;;2.28;1.10;;;8.40;71.10;;;;;;5096637;28;20043;-70
2022/03/30 08:16:45;;;;;;;2.45;1.27;;;8.50;71.10;;;;;;5097414;28;20049;-70
2022/03/30 08:19:11;;;;;;;3.47;1.48;;;8.60;71.00;;;;;;5115036;28;20035;-71
2022/03/30 08:24:21;;;;;;;3.50;1.45;;;8.70;70.80;;;;;;5097813;28;20047;-71
2022/03/30 08:26:47;;;;;;;3.65;1.48;;;8.80;70.90;;;;;;5079471;28;20078;-70
2022/03/30 08:29:13;;;;;;;3.03;1.45;;;8.80;71.00;;;;;;5051726;28;20134;-71
2022/03/30 08:31:39;;;;;;;3.42;1.70;;;8.80;71.00;;;;;;5018809;28;20068;-69
2022/03/30 08:34:05;;;;;;;3.40;1.50;;;8.70;71.20;;;;;;5051817;28;20132;-71
2022/03/30 08:36:31;;;;;;;3.22;1.77;;;8.80;71.30;;;;;;5018477;28;20143;-72
2022/03/30 08:38:58;;;;;;;3.45;1.73;;;8.90;71.30;;;;;;5034722;28;20102;-71
2022/03/30 08:41:25;;;;;;;3.60;1.77;;;9.00;71.20;;;;;;5018803;28;20051;-71
2022/03/30 08:43:51;;;;;;;4.38;1.60;;;9.10;71.10;;;;;;5035725;28;20076;-71
2022/03/30 08:46:20;;;;;;;3.22;1.50;;;9.00;71.20;;;;;;5018365;28;20064;-70
2022/03/30 08:48:46;;;;;;;2.67;1.50;;;9.00;71.30;;;;;;5035228;28;20511;-71
2022/03/30 08:51:13;;;;;;;3.50;1.50;;;9.10;71.50;;;;;;5051520;28;20070;-71
2022/03/30 08:53:39;;;;;;;3.65;1.60;;;9.00;71.40;;;;;;5018435;28;20040;-72
2022/03/30 08:56:04;;;;;;;3.75;1.27;;;9.00;71.60;;;;;;5051960;28;20090;-70
2022/03/30 08:58:30;;;;;;;3.10;1.60;;;9.00;71.70;;;;;;5002007;28;20033;-70
2022/03/30 09:01:12;;;;;;;2.10;1.17;;;9.00;71.50;;;;;;5067275;28;20040;-71
2022/03/30 09:03:56;;;;;;;1.73;1.10;;;9.20;71.60;;;;;;5114090;28;20048;-71
2022/03/30 09:06:42;;;;;;;1.88;1.10;;;9.30;71.40;;;;;;5096022;28;20040;-71
2022/03/30 09:09:09;;;;;;;2.72;1.50;;;9.50;71.10;;;;;;5114123;28;20040;-71
2022/03/30 09:11:45;;;;;;;2.65;1.30;;;9.60;70.90;;;;;;5114143;28;20044;-70
2022/03/30 09:14:12;;;;;;;2.28;1.27;;;9.60;70.80;;;;;;5096443;28;20043;-71
2022/03/30 09:16:44;;;;;;;2.22;1.33;;;9.70;70.80;;;;;;5114224;28;20070;-72
2022/03/30 09:19:16;;;;;;;2.83;1.50;;;9.80;70.50;;;;;;5113710;28;20066;-71
2022/03/30 09:21:46;;;;;;;2.33;1.35;;;9.90;70.30;;;;;;5096313;28;20039;-72
2022/03/30 09:24:14;;;;;;;3.00;1.50;;;10.00;70.00;;;;;;5078972;28;20038;-71
2022/03/30 09:26:48;;;;;;;3.58;1.25;;;10.10;70.10;;;;;;5113930;28;20039;-71
2022/03/30 09:29:23;;;;;;;2.60;1.50;;;10.20;69.90;;;;;;5062667;28;20043;-71
2022/03/30 09:31:50;;;;;;;2.90;1.35;;;10.30;70.50;;;;;;5051331;28;20049;-72
2022/03/30 09:34:16;;;;;;;1.65;1.13;;;10.50;69.80;;;;;;5034759;28;20044;-72
2022/03/30 09:36:43;;;;;;;1.88;1.08;;;10.50;69.60;;;;;;5050831;28;20095;-72
2022/03/30 09:39:31;;;;;;;2.70;1.20;;;10.50;69.60;;;;;;5016672;28;20100;-72
2022/03/30 09:41:59;;;;;;;2.08;1.20;;;10.50;69.60;;;;;;5050530;28;20044;-72
2022/03/30 09:44:28;;;;;;;1.48;1.00;;;10.50;69.70;;;;;;5051299;28;20509;-71
2022/03/30 09:47:05;;;;;;;1.83;0.88;;;10.50;69.80;;;;;;5033005;28;20075;-71
2022/03/30 09:49:49;;;;;;;1.75;1.00;;;10.60;69.80;;;;;;5050173;28;20060;-70
2022/03/30 09:52:25;;;;;;;2.20;1.30;;;10.60;70.00;;;;;;5047247;28;20049;-71
2022/03/30 09:54:57;;;;;;;2.33;1.30;;;10.50;69.90;;;;;;5048460;28;20507;-71
2022/03/30 09:57:26;;;;;;;1.55;1.10;;;10.60;70.00;;;;;;5048918;28;20087;-70
2022/03/30 10:00:06;;;;;;;2.72;1.40;;;10.60;70.00;;;;;;5032382;28;20154;-71
2022/03/30 10:02:39;;;;;;;1.63;1.08;;;10.60;70.00;;;;;;5073266;28;20082;-70
2022/03/30 10:05:07;;;;;;;1.23;0.93;;;10.60;70.10;;;;;;5095107;28;20067;-71
2022/03/30 10:07:33;;;;;;;1.10;0.90;;;10.60;70.00;;;;;;5077401;28;20039;-70
2022/03/30 10:10:00;;;;;;;1.83;1.25;;;10.60;70.10;;;;;;5112949;28;20040;-72
2022/03/30 10:12:27;;;;;;;1.50;1.00;;;10.70;70.00;;;;;;5113456;28;20122;-71
2022/03/30 10:14:54;;;;;;;2.08;1.20;;;10.90;69.80;;;;;;5112916;28;20043;-70
2022/03/30 10:17:22;;;;;;;4.57;1.00;;;11.00;69.50;;;;;;5113768;28;20039;-70
2022/03/30 10:19:49;;;;;;;2.30;1.20;;;11.00;69.30;;;;;;5113459;28;20536;-70
2022/03/30 10:22:50;;;;;;;1.67;0.90;;;11.20;69.20;;;;;;5112889;28;20504;-70
2022/03/30 10:25:43;;;;;;;1.13;0.75;;;11.20;68.90;;;;;;5092152;28;20480;-70
2022/03/30 10:28:30;;;;;;;1.58;1.00;;;11.10;68.70;;;;;;5094476;28;20043;-70
2022/03/30 10:30:57;;;;;;;1.65;1.10;;;11.10;68.70;;;;;;5108522;28;20040;-70
2022/03/30 10:33:44;;;;;;;1.75;1.10;;;11.20;68.70;;;;;;5093661;28;20069;-70
2022/03/30 10:36:23;;;;;;;1.42;1.00;;;11.30;68.60;;;;;;5093816;28;20050;-70
2022/03/30 10:39:25;;;;;;;1.55;1.05;;;11.30;68.20;;;;;;5112615;28;20036;-70
2022/03/30 10:41:56;;;;;;;1.85;0.95;;;11.40;68.30;;;;;;5113253;28;20036;-70
2022/03/30 10:44:41;;;;;;;1.77;1.00;;;11.50;68.10;;;;;;5112538;28;20040;-70
2022/03/30 10:47:18;;;;;;;1.48;0.88;;;11.60;67.80;;;;;;5076506;28;20044;-70
2022/03/30 10:49:50;;;;;;;3.03;1.20;;;11.70;67.70;;;;;;5094652;28;20031;-70
2022/03/30 10:52:39;;;;;;;0.95;0.80;;;11.90;67.40;;;;;;5113375;28;20070;-70
2022/03/30 10:55:22;;;;;;;1.85;0.90;;;12.00;66.90;;;;;;5112463;28;20061;-71
2022/03/30 10:57:53;;;;;;;1.40;0.80;;;12.20;67.30;;;;;;5112552;28;20448;-71
2022/03/30 11:00:23;;;;;;;1.33;0.80;;;12.30;66.50;;;;;;5095490;28;20066;-70
2022/03/30 11:02:50;;;;;;;3.05;1.00;;;12.40;66.20;;;;;;5095217;28;20050;-70
2022/03/30 11:05:26;;;;;;;1.67;1.00;;;12.40;66.00;;;;;;5115975;28;20043;-71
2022/03/30 11:07:52;;;;;;;1.15;0.90;;;12.40;66.10;;;;;;5116757;28;20351;-70
2022/03/30 11:10:35;;;;;;;0.88;0.75;;;12.50;66.00;;;;;;5116276;28;20130;-70
2022/03/30 11:13:11;;;;;;;2.20;1.27;;;12.50;65.80;;;;;;5098112;28;20381;-70
2022/03/30 11:16:11;;;;;;;1.40;0.80;;;12.40;65.80;;;;;;5115916;28;20559;-70
2022/03/30 11:18:54;;;;;;;1.40;0.95;;;12.20;66.10;;;;;;5116246;28;20028;-70
2022/03/30 11:21:20;;;;;;;2.35;0.95;;;12.10;66.40;;;;;;5080998;28;20048;-70
2022/03/30 11:24:12;;;;;;;2.05;1.10;;;12.10;66.70;;;;;;5116136;28;20069;-70
2022/03/30 11:26:57;;;;;;;;;;;12.00;66.50;;;;;;5116229;28;20040;-70
2022/03/30 11:29:47;;;;;;;1.10;0.80;;;12.10;66.70;;;;;;5095699;28;19969;-70
2022/03/30 11:32:34;;;;;;;2.10;0.93;;;12.20;66.40;;;;;;5115825;28;20035;-71
2022/03/30 11:35:06;;;;;;;0.98;0.77;;;12.30;66.10;;;;;;5101249;28;20040;-70
2022/03/30 11:37:35;;;;;;;1.65;1.10;;;12.20;66.10;;;;;;5115484;28;20096;-70
2022/03/30 11:40:18;;;;;;;1.52;1.00;;;12.10;66.20;;;;;;5115770;28;20122;-70
2022/03/30 11:42:50;;;;;;;1.80;0.90;;;12.10;66.20;;;;;;5116011;28;20074;-71
2022/03/30 11:45:20;;;;;;;1.55;0.90;;;12.20;66.20;;;;;;5115458;28;20036;-71
2022/03/30 11:47:56;;;;;;;1.50;0.80;;;12.20;66.80;;;;;;5116365;28;20039;-71
2022/03/30 11:50:32;;;;;;;1.52;0.82;;;12.40;66.10;;;;;;5116165;28;20274;-70
2022/03/30 11:53:01;;;;;;;1.20;0.95;;;12.60;65.60;;;;;;5115331;28;20139;-71
2022/03/30 11:55:29;;;;;;;1.00;0.90;;;12.80;65.10;;;;;;5096108;28;20043;-70
2022/03/30 11:57:57;;;;;;;2.10;1.10;;;13.00;64.60;;;;;;5115493;28;20067;-71
2022/03/30 12:00:25;;;;;;;1.75;0.93;;;13.10;64.10;;;;;;5115653;28;20039;-70
2022/03/30 12:02:53;;;;;;;0.90;0.73;;;13.20;64.00;;;;;;5095612;28;20044;-70
2022/03/30 12:05:19;;;;;;;0.80;0.70;;;13.20;63.70;;;;;;5115718;28;20572;-70
2022/03/30 12:07:50;;;;;;;1.00;0.90;;;13.30;63.70;;;;;;5097011;28;20086;-70
2022/03/30 12:10:16;;;;;;;0.75;0.73;;;13.30;63.50;;;;;;5115492;28;20070;-71
2022/03/30 12:12:43;;;;;;;1.35;0.90;;;13.30;63.40;;;;;;5115207;28;20044;-70
2022/03/30 12:15:14;;;;;;;1.42;0.98;;;13.30;63.30;;;;;;5114538;28;20097;-70
2022/03/30 12:17:40;;;;;;;1.73;1.13;;;13.30;63.50;;;;;;5115175;28;20162;-71
2022/03/30 12:20:08;;;;;;;0.82;0.80;;;13.40;63.60;;;;;;5115411;28;20110;-71
2022/03/30 12:22:36;;;;;;;0.90;0.70;;;13.60;63.20;;;;;;5114829;28;20118;-71
2022/03/30 12:25:17;;;;;;;0.95;0.70;;;13.60;63.10;;;;;;5096584;28;20471;-70
2022/03/30 12:27:42;;;;;;;1.13;0.90;;;13.70;63.00;;;;;;5115006;28;20481;-69
2022/03/30 12:30:09;;;;;;;0.77;0.70;;;13.70;62.80;;;;;;5115097;28;20039;-71
2022/03/30 12:32:35;;;;;;;0.80;0.70;;;13.70;62.90;;;;;;5114716;28;20036;-68
2022/03/30 12:35:15;;;;;;;0.50;0.50;;;13.70;62.80;;;;;;5095279;28;20089;-68
2022/03/30 12:37:45;;;;;;;1.15;0.80;;;13.80;62.70;;;;;;5079877;28;20038;-71
2022/03/30 12:40:14;;;;;;;1.15;0.70;;;13.90;62.70;;;;;;5094796;28;20046;-70
2022/03/30 12:42:41;;;;;;;1.17;0.82;;;13.80;62.60;;;;;;5114623;28;20109;-70
2022/03/30 12:45:10;;;;;;;1.27;0.90;;;13.80;62.50;;;;;;5096726;28;20039;-71
2022/03/30 12:47:39;;;;;;;0.70;0.70;;;13.80;62.60;;;;;;5115063;28;20039;-71
2022/03/30 12:50:10;;;;;;;0.88;0.80;;;13.70;62.80;;;;;;5114310;28;20036;-71
2022/03/30 12:52:44;;;;;;;1.17;0.68;;;13.70;62.90;;;;;;5114527;28;20527;-71
2022/03/30 12:55:27;;;;;;;1.40;0.73;;;13.80;62.80;;;;;;5114901;28;20048;-72
2022/03/30 12:58:07;;;;;;;0.73;0.63;;;13.70;62.60;;;;;;5079674;28;20555;-70
2022/03/30 13:00:38;;;;;;;1.17;1.00;;;13.60;62.80;;;;;;5114058;28;20031;-71
2022/03/30 13:03:16;;;;;;;1.23;0.80;;;13.40;63.20;;;;;;5095047;28;20046;-70
2022/03/30 13:05:46;;;;;;;0.95;0.73;;;13.20;63.50;;;;;;5094084;28;20130;-71
2022/03/30 13:08:18;;;;;;;0.90;0.80;;;13.20;63.50;;;;;;5094110;28;20214;-70
2022/03/30 13:11:04;;;;;;;0.90;0.60;;;13.30;63.70;;;;;;5095833;28;20277;-71